Time;durP1;ratioP1;P1;durP2;ratioP2;P2;SDS_P1;SDS_P2;PMS_P1;PMS_P2;Temp;Humidity;BMP_temperature;BMP_pressure;BME280_temperature;BME280_humidity;BME280_pressure;Samples;Min_cycle;Max_cycle;Signal;HPM_P1;HPM_P2
2023/05/13 00:01:17;;;;;;;6.15;2.83;;;;;;;11.28;96.05;100925.75;5064779;28;20151;-67
2023/05/13 00:04:20;;;;;;;;;;;;;;;11.25;96.03;100929.34;5063822;28;20048;-65
2023/05/13 00:07:24;;;;;;;8.97;3.47;;;;;;;11.32;95.32;100933.38;5061608;28;20387;-65
2023/05/13 00:10:28;;;;;;;11.30;3.85;;;;;;;11.43;94.13;100924.16;5062448;28;20064;-65
2023/05/13 00:13:31;;;;;;;7.18;3.85;;;;;;;11.30;94.85;100913.44;5063371;28;20091;-66
2023/05/13 00:16:34;;;;;;;7.65;4.63;;;;;;;11.23;95.14;100912.03;5064180;28;20047;-65
2023/05/13 00:19:37;;;;;;;;;;;;;;;11.35;94.96;100917.50;5063537;28;20098;-65
2023/05/13 00:22:40;;;;;;;10.63;4.97;;;;;;;11.25;95.15;100923.28;5063158;28;20359;-65
2023/05/13 00:25:44;;;;;;;10.63;4.88;;;;;;;11.16;96.60;100914.94;5061390;28;20122;-65
2023/05/13 00:28:48;;;;;;;16.02;5.25;;;;;;;11.10;96.36;100917.00;5062212;28;20586;-67
2023/05/13 00:31:51;;;;;;;6.60;4.50;;;;;;;11.14;96.74;100913.34;5050990;28;20043;-66
2023/05/13 00:34:54;;;;;;;8.10;3.90;;;;;;;11.23;95.90;100917.25;5063979;28;20063;-66
2023/05/13 00:37:58;;;;;;;14.88;4.38;;;;;;;11.03;96.04;100913.00;5064734;28;20432;-66
2023/05/13 00:41:02;;;;;;;7.88;4.18;;;;;;;11.07;95.66;100914.53;5060153;28;20098;-66
2023/05/13 00:44:05;;;;;;;16.63;4.13;;;;;;;11.03;95.84;100913.00;5048790;28;20047;-66
2023/05/13 00:47:10;;;;;;;10.02;3.92;;;;;;;10.99;96.15;100914.06;5062204;28;20082;-66
2023/05/13 00:50:14;;;;;;;12.25;4.00;;;;;;;11.12;95.38;100909.94;5048298;28;20085;-65
2023/05/13 00:53:17;;;;;;;9.65;3.80;;;;;;;11.16;95.02;100906.25;5064242;28;20418;-66
2023/05/13 00:56:21;;;;;;;;;;;;;;;11.07;94.50;100910.19;5060096;28;20510;-66
2023/05/13 00:59:27;;;;;;;9.45;4.45;;;;;;;10.87;95.64;100921.56;5062445;28;19919;-66
2023/05/13 01:03:01;;;;;;;12.27;4.30;;;;;;;10.85;96.09;100923.44;5061815;28;20048;-65
2023/05/13 01:06:11;;;;;;;13.70;4.00;;;;;;;11.01;94.56;100914.81;5060549;28;20102;-66
2023/05/13 01:09:33;;;;;;;4.10;3.70;;;;;;;11.06;93.64;100912.84;5050812;28;20118;-66
2023/05/13 01:12:39;;;;;;;7.82;3.90;;;;;;;11.06;94.31;100916.31;5063356;28;20047;-66
2023/05/13 01:15:55;;;;;;;4.90;4.00;;;;;;;11.15;94.10;100915.88;5059797;28;20172;-65
2023/05/13 01:19:05;;;;;;;5.88;3.42;;;;;;;11.17;93.77;100915.81;5062775;28;20043;-66
2023/05/13 01:22:09;;;;;;;4.43;3.53;;;;;;;11.06;94.27;100921.53;5061613;28;20035;-66
2023/05/13 01:25:13;;;;;;;6.80;3.72;;;;;;;11.12;93.62;100933.50;5059128;28;20074;-65
2023/05/13 01:28:17;;;;;;;8.23;3.72;;;;;;;11.08;93.97;100929.34;5050694;28;20044;-65
2023/05/13 01:31:26;;;;;;;6.55;3.97;;;;;;;10.83;94.96;100927.88;5046458;28;20653;-65
2023/05/13 01:34:31;;;;;;;5.38;4.22;;;;;;;10.76;95.59;100931.69;5059243;28;20566;-65
2023/05/13 01:37:35;;;;;;;6.57;3.83;;;;;;;10.74;96.63;100924.84;5062302;28;20420;-65
2023/05/13 01:40:39;;;;;;;10.00;3.83;;;;;;;10.76;96.09;100921.25;5050682;28;20036;-65
2023/05/13 01:43:43;;;;;;;9.85;4.50;;;;;;;10.62;96.50;100921.00;5056860;28;20055;-66
2023/05/13 01:46:49;;;;;;;6.38;3.90;;;;;;;10.78;95.64;100919.38;5057997;28;20102;-66
2023/05/13 01:49:53;;;;;;;8.70;4.15;;;;;;;10.75;96.02;100916.91;5058562;28;20519;-65
2023/05/13 01:52:56;;;;;;;6.15;3.35;;;;;;;10.79;95.24;100912.41;5059008;28;20098;-66
2023/05/13 01:56:00;;;;;;;6.93;3.60;;;;;;;10.86;94.30;100909.41;5050762;28;20446;-65
2023/05/13 01:59:03;;;;;;;;;;;;;;;10.89;93.95;100911.03;5056449;28;20047;-65
2023/05/13 02:02:06;;;;;;;3.63;2.85;;;;;;;10.99;93.81;100906.22;5049576;28;20415;-66
2023/05/13 02:05:10;;;;;;;3.95;2.47;;;;;;;10.80;94.46;100903.63;5029417;28;20040;-65
2023/05/13 02:08:14;;;;;;;5.15;2.42;;;;;;;10.76;94.46;100908.16;5029368;28;20048;-66
2023/05/13 02:11:17;;;;;;;4.57;3.20;;;;;;;10.79;94.74;100908.03;5029778;28;20044;-66
2023/05/13 02:14:21;;;;;;;8.77;3.88;;;;;;;10.80;95.08;100909.69;5031741;28;20044;-66
2023/05/13 02:17:24;;;;;;;9.55;4.50;;;;;;;10.67;95.78;100908.59;5027316;28;20453;-65
2023/05/13 02:20:29;;;;;;;7.97;4.28;;;;;;;10.68;95.79;100905.03;5029051;28;20120;-65
2023/05/13 02:23:32;;;;;;;;;;;;;;;10.77;95.13;100907.22;5029782;28;20095;-65
2023/05/13 02:26:35;;;;;;;10.23;3.80;;;;;;;10.68;95.27;100912.88;5030442;28;20291;-65
2023/05/13 02:29:38;;;;;;;4.90;3.67;;;;;;;10.56;96.26;100908.22;5030878;28;20072;-66
2023/05/13 02:32:42;;;;;;;;;;;;;;;10.56;96.59;100903.00;5023392;28;20468;-66
2023/05/13 02:35:46;;;;;;;6.65;3.40;;;;;;;10.57;95.99;100902.09;5028569;28;19919;-65
2023/05/13 02:38:50;;;;;;;5.13;3.22;;;;;;;10.57;96.15;100909.94;5039238;28;20032;-66
2023/05/13 02:41:54;;;;;;;4.63;3.28;;;;;;;10.66;95.72;100910.34;5029322;28;20405;-65
2023/05/13 02:44:58;;;;;;;4.78;2.88;;;;;;;10.70;95.74;100913.69;5029467;28;20104;-66
2023/05/13 02:48:03;;;;;;;5.18;3.42;;;;;;;10.70;95.67;100914.53;5037240;28;20405;-66
2023/05/13 02:51:08;;;;;;;8.75;3.90;;;;;;;10.69;95.59;100907.59;5038499;28;20076;-66
2023/05/13 02:54:12;;;;;;;5.55;3.60;;;;;;;10.70;95.87;100909.28;5028772;28;20040;-66
2023/05/13 02:57:16;;;;;;;7.90;3.03;;;;;;;10.78;95.20;100908.91;5030008;28;20056;-66
2023/05/13 03:00:20;;;;;;;10.35;3.67;;;;;;;10.71;95.07;100910.13;5041436;28;20036;-66
2023/05/13 03:03:23;;;;;;;6.07;3.25;;;;;;;10.66;95.57;100905.13;5053360;28;20485;-66
2023/05/13 03:06:26;;;;;;;10.23;3.97;;;;;;;10.61;95.77;100909.72;5058774;28;20059;-66
2023/05/13 03:09:30;;;;;;;4.60;3.67;;;;;;;10.62;96.10;100910.56;5059533;28;20044;-66
2023/05/13 03:12:33;;;;;;;5.35;3.97;;;;;;;10.65;96.11;100911.25;5060509;28;20411;-66
2023/05/13 03:15:37;;;;;;;8.60;3.95;;;;;;;10.59;97.12;100908.06;5061460;28;20081;-66
2023/05/13 03:18:40;;;;;;;7.22;3.80;;;;;;;10.62;96.84;100905.31;5061780;28;20116;-66
2023/05/13 03:21:43;;;;;;;7.90;3.10;;;;;;;10.59;96.95;100908.06;5058765;28;20074;-66
2023/05/13 03:24:50;;;;;;;6.13;2.92;;;;;;;10.54;96.59;100912.69;5051660;28;20124;-66
2023/05/13 03:27:55;;;;;;;7.55;3.50;;;;;;;10.56;96.79;100916.06;5063430;28;20151;-66
2023/05/13 03:31:00;;;;;;;7.25;3.65;;;;;;;10.60;96.70;100918.47;5062245;28;20090;-66
2023/05/13 03:34:06;;;;;;;4.22;3.00;;;;;;;10.58;96.76;100919.47;5059293;28;20047;-66
2023/05/13 03:37:10;;;;;;;6.15;3.90;;;;;;;10.47;97.58;100918.19;5063766;28;20048;-66
2023/05/13 03:40:13;;;;;;;;;;;;;;;10.67;96.88;100924.28;5064239;28;20085;-66
2023/05/13 03:43:17;;;;;;;6.15;3.33;;;;;;;10.65;95.96;100926.09;5063933;28;19966;-66
2023/05/13 03:46:28;;;;;;;6.85;4.03;;;;;;;10.67;95.34;100937.34;5063836;28;20125;-66
2023/05/13 03:49:32;;;;;;;7.40;3.72;;;;;;;10.65;96.12;100931.34;5052116;28;20132;-66
2023/05/13 03:52:35;;;;;;;5.00;3.55;;;;;;;10.67;95.16;100927.75;5075949;28;20102;-66
2023/05/13 03:55:39;;;;;;;6.40;3.78;;;;;;;10.67;95.05;100927.75;5075096;28;20078;-66
2023/05/13 03:58:42;;;;;;;7.35;4.63;;;;;;;10.63;95.45;100935.81;5075715;28;20036;-66
2023/05/13 04:01:45;;;;;;;;;;;;;;;10.67;95.31;100929.50;5075860;28;20102;-66
2023/05/13 04:04:48;;;;;;;3.90;3.47;;;;;;;10.58;95.31;100929.94;5063424;28;19920;-66
2023/05/13 04:07:51;;;;;;;5.80;4.13;;;;;;;10.59;95.21;100937.72;5075714;28;20507;-66
2023/05/13 04:10:56;;;;;;;5.05;3.97;;;;;;;10.65;95.00;100931.34;5074718;28;20051;-66
2023/05/13 04:14:06;;;;;;;5.38;3.58;;;;;;;10.68;94.88;100932.03;5075335;28;20106;-66
2023/05/13 04:17:11;;;;;;;5.60;4.03;;;;;;;10.64;94.95;100930.50;5075841;28;20097;-66
2023/05/13 04:20:14;;;;;;;9.30;4.15;;;;;;;10.67;95.24;100932.97;5075340;28;20109;-66
2023/05/13 04:23:17;;;;;;;6.97;5.50;;;;;;;10.69;94.89;100938.13;5075216;28;20063;-66
2023/05/13 04:26:24;;;;;;;12.27;5.03;;;;;;;10.47;96.22;100943.50;5075389;28;20415;-66
2023/05/13 04:29:27;;;;;;;7.18;4.55;;;;;;;10.52;96.15;100938.06;5075320;28;20546;-66
2023/05/13 04:32:31;;;;;;;4.72;4.22;;;;;;;10.60;95.82;100944.63;5074432;28;20094;-66
2023/05/13 04:35:51;;;;;;;9.43;4.05;;;;;;;10.34;97.59;100947.56;5062273;28;20047;-66
2023/05/13 04:38:54;;;;;;;;;;;;;;;10.46;97.16;100950.50;5073448;28;20048;-66
2023/05/13 04:42:00;;;;;;;5.53;4.45;;;;;;;10.30;98.32;100953.84;5073607;28;19965;-66
2023/05/13 04:45:03;;;;;;;4.15;3.47;;;;;;;10.39;98.35;100956.91;5073513;28;20071;-66
2023/05/13 04:48:07;;;;;;;8.05;4.47;;;;;;;10.57;97.06;100959.63;5073615;28;20463;-66
2023/05/13 04:51:11;;;;;;;6.40;5.03;;;;;;;10.64;95.71;100959.25;5068963;28;20056;-66
2023/05/13 04:54:15;;;;;;;5.10;4.30;;;;;;;10.69;95.22;100974.75;5042530;28;20404;-66
2023/05/13 04:57:18;;;;;;;;;;;;;;;10.76;94.90;100973.56;5054328;28;20515;-66
2023/05/13 05:00:22;;;;;;;;;;;;;;;10.83;94.24;100974.97;5042836;28;19919;-66
2023/05/13 05:03:30;;;;;;;4.22;3.25;;;;;;;10.66;95.20;100964.44;5041749;28;20402;-66
2023/05/13 05:06:38;;;;;;;11.57;3.90;;;;;;;10.59;95.94;100968.22;5042318;28;20562;-67
2023/05/13 05:09:41;;;;;;;4.28;2.95;;;;;;;10.63;95.54;100962.81;5041995;28;20516;-66
2023/05/13 05:12:45;;;;;;;4.95;3.15;;;;;;;10.52;95.88;100970.28;5041728;28;20477;-67
2023/05/13 05:15:49;;;;;;;3.30;2.60;;;;;;;10.54;95.56;100970.22;5052580;28;20110;-66
2023/05/13 05:18:53;;;;;;;4.43;2.47;;;;;;;10.57;95.90;100968.31;5042039;28;20606;-66
2023/05/13 05:21:57;;;;;;;;;;;;;;;10.48;96.06;100960.88;5042389;28;20109;-66
2023/05/13 05:25:01;;;;;;;4.07;3.03;;;;;;;10.64;96.06;100966.25;5042025;28;19919;-66
2023/05/13 05:28:08;;;;;;;4.95;2.70;;;;;;;10.75;95.62;100964.00;5053465;28;20063;-67
2023/05/13 05:31:14;;;;;;;3.60;2.55;;;;;;;10.78;95.13;100974.31;5053150;28;20056;-66
2023/05/13 05:34:24;;;;;;;6.20;2.63;;;;;;;10.67;95.00;100981.81;5054267;28;20062;-66
2023/05/13 05:37:28;;;;;;;3.05;2.38;;;;;;;10.70;95.00;100981.69;5052833;28;20082;-67
2023/05/13 05:40:43;;;;;;;4.60;3.00;;;;;;;10.80;95.72;100985.56;5053676;28;20090;-67
2023/05/13 05:43:47;;;;;;;5.15;3.08;;;;;;;10.89;94.85;100987.75;5052962;28;20199;-67
2023/05/13 05:46:51;;;;;;;3.67;3.05;;;;;;;10.91;94.20;100993.78;5054030;28;20405;-67
2023/05/13 05:49:55;;;;;;;3.30;3.00;;;;;;;11.04;93.67;100994.06;5041310;28;20468;-67
2023/05/13 05:52:59;;;;;;;3.70;3.13;;;;;;;10.99;94.93;100988.19;5052859;28;20416;-67
2023/05/13 05:56:03;;;;;;;3.58;2.88;;;;;;;11.08;93.91;100986.91;5041346;28;20040;-67
2023/05/13 05:59:07;;;;;;;3.67;3.25;;;;;;;11.15;93.10;100993.53;5052871;28;20162;-67
2023/05/13 06:02:11;;;;;;;3.70;2.90;;;;;;;11.24;92.72;100987.03;5053321;28;20091;-67
2023/05/13 06:05:15;;;;;;;4.53;3.30;;;;;;;11.18;93.23;100986.38;5052741;28;20178;-67
2023/05/13 06:08:19;;;;;;;5.72;3.88;;;;;;;11.13;93.96;100987.53;5041142;28;20067;-67
2023/05/13 06:11:24;;;;;;;4.68;3.97;;;;;;;11.04;94.31;100980.97;5053462;28;20044;-67
2023/05/13 06:14:27;;;;;;;4.07;3.38;;;;;;;11.06;94.92;100983.50;5040886;28;20051;-67
2023/05/13 06:17:36;;;;;;;4.30;3.30;;;;;;;11.25;93.74;100994.81;5041883;28;20047;-67
2023/05/13 06:20:42;;;;;;;4.57;3.75;;;;;;;11.27;93.84;100997.38;5052407;28;20175;-67
2023/05/13 06:23:49;;;;;;;4.10;3.45;;;;;;;11.40;93.83;100998.47;5053217;28;20040;-66
2023/05/13 06:26:54;;;;;;;4.93;3.70;;;;;;;11.45;94.62;100993.00;5040941;28;20447;-66
2023/05/13 06:29:57;;;;;;;4.22;3.83;;;;;;;11.44;94.30;100994.78;5053050;28;20397;-66
2023/05/13 06:33:02;;;;;;;4.75;3.60;;;;;;;11.41;94.13;101001.00;5053336;28;20098;-66
2023/05/13 06:36:09;;;;;;;5.18;3.70;;;;;;;11.36;94.57;100992.53;5044925;28;20039;-67
2023/05/13 06:39:15;;;;;;;4.97;3.60;;;;;;;11.34;94.78;100994.38;5060562;28;20206;-66
2023/05/13 06:42:21;;;;;;;6.38;3.80;;;;;;;11.42;94.58;100999.22;5072865;28;20412;-67
2023/05/13 06:45:33;;;;;;;4.57;4.10;;;;;;;11.40;95.84;100990.63;5068578;28;20106;-70
2023/05/13 06:48:37;;;;;;;4.10;3.20;;;;;;;11.42;96.27;100996.59;5060579;28;20090;-66
2023/05/13 06:51:41;;;;;;;4.00;3.60;;;;;;;11.36;96.47;101003.00;5060696;28;20124;-66
2023/05/13 06:54:44;;;;;;;5.63;3.78;;;;;;;11.45;96.56;100993.00;5072675;28;20051;-66
2023/05/13 06:57:48;;;;;;;4.70;3.50;;;;;;;11.57;96.83;100997.63;5071283;28;20048;-66
2023/05/13 07:00:51;;;;;;;4.18;3.00;;;;;;;11.64;96.78;100999.03;5071036;28;20040;-66
2023/05/13 07:03:55;;;;;;;4.82;3.35;;;;;;;11.69;96.67;100983.94;5068069;28;20044;-67
2023/05/13 07:06:59;;;;;;;5.72;4.28;;;;;;;11.74;96.56;100987.19;5052279;28;20083;-67
2023/05/13 07:10:01;;;;;;;;;;;;;;;11.82;95.64;100979.78;5040494;28;20048;-67
2023/05/13 07:13:06;;;;;;;4.95;3.13;;;;;;;11.92;95.81;100979.34;5052640;28;20016;-67
2023/05/13 07:16:09;;;;;;;5.60;3.28;;;;;;;11.97;95.52;100977.38;5052623;28;20051;-67
2023/05/13 07:19:12;;;;;;;;;;;;;;;12.08;94.78;100978.50;5052894;28;20086;-67
2023/05/13 07:22:29;;;;;;;4.75;3.30;;;;;;;12.11;94.86;100972.25;5052726;28;19974;-68
2023/05/13 07:25:34;;;;;;;4.22;3.22;;;;;;;12.23;94.09;100971.63;5051752;28;20150;-67
2023/05/13 07:28:37;;;;;;;8.98;4.00;;;;;;;12.33;94.03;100972.81;5054866;28;20058;-67
2023/05/13 07:31:40;;;;;;;;;;;;;;;12.38;91.21;100972.59;5061945;28;20086;-68
2023/05/13 07:34:44;;;;;;;5.22;3.33;;;;;;;12.50;91.02;100964.06;5057508;28;19965;-68
2023/05/13 07:37:48;;;;;;;5.05;3.33;;;;;;;12.70;90.20;100967.38;5058518;28;20507;-67
2023/05/13 07:40:51;;;;;;;6.70;3.10;;;;;;;12.84;88.93;100964.03;5047048;28;20040;-68
2023/05/13 07:43:55;;;;;;;6.93;3.13;;;;;;;12.97;87.49;100959.81;5060171;28;20036;-69
2023/05/13 07:46:58;;;;;;;4.13;3.28;;;;;;;13.07;87.01;100960.13;5060947;28;20121;-68
2023/05/13 07:50:02;;;;;;;4.43;3.72;;;;;;;13.28;87.43;100955.50;5061359;28;20523;-66
2023/05/13 07:53:05;;;;;;;9.70;3.78;;;;;;;13.38;85.42;100956.66;5050602;28;20218;-67
2023/05/13 07:56:09;;;;;;;7.00;3.80;;;;;;;13.48;85.02;100960.44;5057834;28;20048;-65
2023/05/13 07:59:12;;;;;;;8.57;4.00;;;;;;;13.58;85.37;100960.75;5059241;28;20048;-67
2023/05/13 08:02:16;;;;;;;8.07;3.47;;;;;;;13.56;79.92;100953.00;5048348;28;20053;-67
2023/05/13 08:05:23;;;;;;;4.05;3.42;;;;;;;13.60;81.01;100951.03;5041025;28;20748;-67
2023/05/13 08:08:26;;;;;;;4.70;3.83;;;;;;;13.71;82.87;100954.69;5041828;28;20052;-67
2023/05/13 08:11:30;;;;;;;4.75;3.60;;;;;;;13.81;79.36;100952.38;5042278;28;20559;-67
2023/05/13 08:14:35;;;;;;;6.55;3.47;;;;;;;13.79;77.54;100943.75;5036288;28;20091;-67
2023/05/13 08:17:39;;;;;;;7.35;3.58;;;;;;;13.88;76.99;100937.09;5041610;28;20108;-67
2023/05/13 08:20:42;;;;;;;9.98;4.88;;;;;;;14.08;78.90;100943.81;5043518;28;20055;-68
2023/05/13 08:23:45;;;;;;;5.38;3.22;;;;;;;14.19;79.18;100947.47;5037769;28;20056;-67
2023/05/13 08:26:49;;;;;;;5.13;3.63;;;;;;;14.33;77.59;100948.44;5035327;28;20420;-67
2023/05/13 08:29:52;;;;;;;5.22;3.55;;;;;;;14.32;76.57;100944.91;5035306;28;20124;-67
2023/05/13 08:32:55;;;;;;;7.75;3.47;;;;;;;14.48;80.19;100942.19;5035226;28;20109;-71
2023/05/13 08:36:00;;;;;;;12.93;3.88;;;;;;;14.89;83.83;100937.00;5035388;28;20512;-73
2023/05/13 08:39:03;;;;;;;12.18;3.95;;;;;;;14.96;78.50;100947.13;5034839;28;20100;-76
2023/05/13 08:42:09;;;;;;;11.55;3.40;;;;;;;15.09;76.73;100937.50;5034978;28;20402;-70
2023/05/13 08:45:14;;;;;;;6.15;3.17;;;;;;;15.31;73.33;100936.97;5033147;28;20045;-76
2023/05/13 08:48:19;;;;;;;10.95;3.58;;;;;;;15.41;74.55;100937.19;5032742;28;20052;-73
2023/05/13 08:51:23;;;;;;;9.20;3.22;;;;;;;15.50;71.45;100931.31;5032998;28;20104;-73
2023/05/13 08:54:27;;;;;;;4.93;3.47;;;;;;;15.66;71.08;100925.88;5033877;28;20209;-73
2023/05/13 08:57:30;;;;;;;5.30;2.83;;;;;;;15.61;70.49;100922.72;5033795;28;20055;-74
2023/05/13 09:00:34;;;;;;;5.63;3.05;;;;;;;15.68;71.48;100914.31;5033280;28;20120;-74
2023/05/13 09:03:55;;;;;;;4.85;2.63;;;;;;;15.86;71.84;100922.78;5033099;28;20100;-78
2023/05/13 09:06:58;;;;;;;4.65;2.90;;;;;;;15.93;72.53;100923.22;5034473;28;20167;-77
2023/05/13 09:10:02;;;;;;;4.05;2.28;;;;;;;16.03;70.41;100921.63;5034684;28;20117;-73
2023/05/13 09:13:06;;;;;;;6.75;2.80;;;;;;;16.25;70.48;100915.69;5034615;28;20192;-73
2023/05/13 09:16:12;;;;;;;5.75;2.80;;;;;;;16.32;69.54;100918.75;5034797;28;20045;-74
2023/05/13 09:19:16;;;;;;;4.32;2.35;;;;;;;16.35;69.99;100914.09;5044802;28;20509;-74
2023/05/13 09:22:25;;;;;;;4.05;2.30;;;;;;;16.47;68.57;100909.75;5034228;28;20143;-72
2023/05/13 09:25:29;;;;;;;4.65;2.20;;;;;;;16.60;66.04;100912.38;5033027;28;20091;-78
2023/05/13 09:28:32;;;;;;;3.83;2.10;;;;;;;16.70;66.39;100913.41;5034246;28;20053;-74
2023/05/13 09:31:35;;;;;;;6.63;2.30;;;;;;;16.83;64.40;100918.66;5034498;28;20457;-74
2023/05/13 09:34:38;;;;;;;5.80;2.08;;;;;;;16.89;61.90;100910.31;5033276;28;20083;-75
2023/05/13 09:37:46;;;;;;;5.68;2.00;;;;;;;17.05;61.52;100912.69;5032680;28;20128;-70
2023/05/13 09:40:56;;;;;;;5.10;2.40;;;;;;;17.15;64.05;100914.53;5034009;28;20092;-70
2023/05/13 09:44:03;;;;;;;3.85;1.77;;;;;;;17.20;58.40;100914.19;5033954;28;20057;-70
2023/05/13 09:47:10;;;;;;;3.05;1.88;;;;;;;17.18;60.12;100906.38;5034154;28;20064;-69
2023/05/13 09:50:13;;;;;;;5.25;1.92;;;;;;;17.07;57.87;100900.16;5033813;28;20413;-70
2023/05/13 09:53:19;;;;;;;2.85;1.70;;;;;;;17.15;59.85;100897.81;5034054;28;20069;-70
2023/05/13 09:56:25;;;;;;;3.35;1.60;;;;;;;17.28;59.20;100898.59;5033731;28;20041;-70
2023/05/13 09:59:32;;;;;;;3.90;1.70;;;;;;;17.40;55.39;100902.13;5033859;28;20095;-70
2023/05/13 10:02:37;;;;;;;3.00;1.88;;;;;;;17.35;54.09;100899.81;5033452;28;20133;-69
2023/05/13 10:05:41;;;;;;;2.67;1.63;;;;;;;17.28;56.81;100898.59;5033601;28;20105;-70
2023/05/13 10:08:46;;;;;;;5.32;1.95;;;;;;;17.28;57.56;100909.16;5021203;28;20044;-70
2023/05/13 10:11:49;;;;;;;4.95;2.20;;;;;;;17.22;56.60;100893.75;5033395;28;20095;-70
2023/05/13 10:14:54;;;;;;;4.40;1.90;;;;;;;17.29;56.91;100894.97;5033457;28;20049;-70
2023/05/13 10:17:58;;;;;;;4.03;1.80;;;;;;;17.33;57.91;100885.91;5033420;28;20044;-70
2023/05/13 10:21:05;;;;;;;4.93;2.38;;;;;;;17.74;59.07;100883.69;5033722;28;20095;-70
2023/05/13 10:24:09;;;;;;;3.30;2.10;;;;;;;17.83;59.28;100883.88;5033073;28;20129;-70
2023/05/13 10:27:13;;;;;;;3.55;2.00;;;;;;;17.77;58.41;100880.84;5032341;28;20133;-69
2023/05/13 10:30:16;;;;;;;3.90;2.80;;;;;;;17.72;58.68;100873.25;5033444;28;20057;-70
2023/05/13 10:33:22;;;;;;;3.13;1.90;;;;;;;17.83;58.28;100872.44;5031722;28;20099;-70
2023/05/13 10:36:48;;;;;;;5.03;2.10;;;;;;;17.79;56.98;100869.19;5032057;28;20107;-70
2023/05/13 10:40:24;;;;;;;4.22;1.90;;;;;;;17.71;57.54;100854.84;5032891;28;20064;-70
2023/05/13 10:43:29;;;;;;;3.17;1.73;;;;;;;17.92;58.75;100860.31;5032185;28;20047;-70
2023/05/13 10:46:34;;;;;;;5.18;2.13;;;;;;;18.12;56.23;100835.78;5037511;28;20040;-70
2023/05/13 10:49:38;;;;;;;7.20;1.75;;;;;;;18.32;56.07;100850.94;5032106;28;20115;-70
2023/05/13 10:52:46;;;;;;;4.28;2.15;;;;;;;18.40;54.58;100846.81;5031195;28;20053;-70
2023/05/13 10:55:59;;;;;;;9.25;2.13;;;;;;;18.30;53.18;100852.84;5032443;28;20048;-69
2023/05/13 10:59:06;;;;;;;3.63;2.10;;;;;;;18.56;54.52;100847.28;5032327;28;20099;-70
2023/05/13 11:02:23;;;;;;;4.22;2.28;;;;;;;18.65;54.75;100848.34;5037872;28;20068;-70
2023/05/13 11:05:27;;;;;;;4.55;1.80;;;;;;;18.64;55.70;100836.06;5050947;28;20044;-70
2023/05/13 11:08:39;;;;;;;6.30;1.88;;;;;;;18.64;53.16;100844.84;5052525;28;20051;-70
2023/05/13 11:11:47;;;;;;;2.83;1.65;;;;;;;18.64;52.63;100841.38;5052603;28;20116;-68
2023/05/13 11:14:54;;;;;;;6.97;2.20;;;;;;;18.88;53.87;100823.47;5052785;28;20451;-69
2023/05/13 11:17:58;;;;;;;10.85;2.33;;;;;;;19.12;48.62;100831.22;5052405;28;20554;-70
2023/05/13 11:21:03;;;;;;;8.40;2.20;;;;;;;19.16;49.63;100824.69;5052554;28;20044;-69
2023/05/13 11:24:07;;;;;;;4.30;1.77;;;;;;;19.25;49.16;100823.09;5052471;28;20068;-70
2023/05/13 11:27:17;;;;;;;5.63;2.42;;;;;;;19.37;47.54;100824.69;5052180;28;20101;-70
2023/05/13 11:30:23;;;;;;;3.85;1.63;;;;;;;19.07;46.30;100817.50;5051014;28;20079;-70
2023/05/13 11:34:04;;;;;;;3.30;1.85;;;;;;;19.14;49.07;100823.13;5052424;28;20059;-70
2023/05/13 11:37:09;;;;;;;5.25;1.83;;;;;;;19.18;47.05;100819.28;5052331;28;20090;-70
2023/05/13 11:40:32;;;;;;;5.30;1.65;;;;;;;19.39;51.65;100812.13;5051432;28;20117;-85
2023/05/13 11:44:28;;;;;;;4.57;2.00;;;;;;;19.77;53.14;100799.25;5053217;28;20056;-85
2023/05/13 11:52:42;;;;;;;3.45;2.15;;;;;;;19.65;50.09;100786.06;5056324;28;20159;-82
2023/05/13 12:01:00;;;;;;;4.82;1.65;;;;;;;19.83;50.83;100793.41;5372105;22;20064;-85
2023/05/13 12:04:04;;;;;;;5.93;1.90;;;;;;;19.90;48.18;100789.25;5055107;28;20083;-83
2023/05/13 12:07:32;;;;;;;5.30;2.20;;;;;;;19.93;48.63;100795.13;5056152;28;20051;-79
2023/05/13 12:10:42;;;;;;;5.18;1.92;;;;;;;20.02;47.42;100798.78;5055642;28;20055;-69
2023/05/13 12:13:46;;;;;;;8.07;2.78;;;;;;;20.24;46.57;100807.53;5055680;28;20075;-69
2023/05/13 12:16:49;;;;;;;11.77;4.32;;;;;;;20.24;46.83;100786.28;5055634;28;20131;-69
2023/05/13 12:20:15;;;;;;;4.20;1.70;;;;;;;20.28;46.17;100793.84;5055580;28;20416;-71
2023/05/13 12:23:18;;;;;;;3.03;1.70;;;;;;;19.89;43.36;100790.22;5055518;28;20565;-70
2023/05/13 12:26:22;;;;;;;3.65;1.77;;;;;;;19.86;44.41;100791.34;5055433;28;20044;-70
2023/05/13 12:29:25;;;;;;;7.18;2.25;;;;;;;20.02;44.07;100787.34;5055522;28;20052;-70
2023/05/13 12:32:28;;;;;;;4.78;1.95;;;;;;;20.13;43.62;100790.75;5056518;28;20068;-70
2023/05/13 12:35:32;;;;;;;4.60;1.88;;;;;;;20.32;44.51;100778.47;5055312;28;20229;-70
2023/05/13 12:38:35;;;;;;;4.75;1.67;;;;;;;20.29;44.56;100779.56;5055501;28;20094;-71
2023/05/13 12:41:40;;;;;;;3.72;2.10;;;;;;;20.34;44.66;100790.63;5055147;28;20611;-71
2023/05/13 12:44:44;;;;;;;3.35;2.13;;;;;;;20.11;43.54;100795.34;5053585;28;20634;-71
2023/05/13 12:47:49;;;;;;;4.85;1.88;;;;;;;20.10;43.33;100793.66;5053630;28;20124;-70
2023/05/13 12:50:52;;;;;;;7.97;1.77;;;;;;;20.69;43.80;100797.28;5053420;28;20412;-71
2023/05/13 12:54:01;;;;;;;8.35;1.73;;;;;;;20.89;42.41;100793.63;5053034;28;20508;-70
2023/05/13 12:57:08;;;;;;;3.70;1.63;;;;;;;20.80;42.97;100789.16;5054123;28;20114;-70
2023/05/13 13:00:12;;;;;;;4.47;1.60;;;;;;;21.08;42.09;100789.28;5054756;28;20114;-71
2023/05/13 13:03:15;;;;;;;4.10;1.67;;;;;;;21.40;42.39;100774.84;5054675;28;20413;-70
2023/05/13 13:06:18;;;;;;;4.18;1.70;;;;;;;21.45;41.67;100778.78;5054892;28;20539;-70
2023/05/13 13:09:21;;;;;;;5.75;2.00;;;;;;;21.65;40.55;100773.38;5054784;28;20048;-71
2023/05/13 13:12:26;;;;;;;3.67;1.67;;;;;;;21.86;43.13;100774.00;5053969;28;20121;-87
2023/05/13 13:15:30;;;;;;;2.67;1.67;;;;;;;21.83;38.70;100768.97;5054571;28;20044;-77
2023/05/13 13:18:33;;;;;;;4.90;1.95;;;;;;;22.08;38.58;100769.25;5054449;28;20121;-81
2023/05/13 13:21:36;;;;;;;6.78;1.90;;;;;;;22.14;37.32;100763.31;5054459;28;20044;-79
2023/05/13 13:24:42;;;;;;;5.05;1.42;;;;;;;22.57;35.79;100759.16;5054309;28;20523;-70
2023/05/13 13:27:46;;;;;;;2.30;1.15;;;;;;;23.11;36.12;100751.97;5054290;28;20075;-70
2023/05/13 13:30:49;;;;;;;7.55;1.70;;;;;;;22.91;36.16;100752.13;5053482;28;20094;-71
2023/05/13 13:33:52;;;;;;;5.60;1.70;;;;;;;22.27;36.16;100779.81;5054170;28;20074;-70
2023/05/13 13:36:56;;;;;;;7.65;1.52;;;;;;;22.17;36.59;100795.00;5052209;28;20102;-70
2023/05/13 13:39:59;;;;;;;5.07;1.92;;;;;;;21.23;38.81;100824.28;5053892;28;20048;-74
2023/05/13 13:43:04;;;;;;;4.68;1.33;;;;;;;20.36;42.95;100844.47;5053859;28;20094;-70
2023/05/13 13:46:07;;;;;;;6.97;1.58;;;;;;;19.62;47.13;100847.34;5054046;28;20526;-69
2023/05/13 13:49:10;;;;;;;7.72;1.50;;;;;;;19.34;49.90;100830.25;5053650;28;20048;-70
2023/05/13 13:52:14;;;;;;;6.25;1.83;;;;;;;19.00;50.06;100825.13;5053716;28;20098;-69
2023/05/13 13:55:25;;;;;;;3.28;1.55;;;;;;;18.50;52.26;100834.53;5052707;28;20040;-69
2023/05/13 13:58:28;;;;;;;9.85;2.15;;;;;;;17.65;56.05;100853.53;5053482;28;20071;-69
2023/05/13 14:01:31;;;;;;;4.88;2.20;;;;;;;17.74;56.72;100857.25;5053403;28;20110;-70
2023/05/13 14:04:34;;;;;;;;;;;;;;;17.61;56.33;100858.22;5053490;28;20175;-69
2023/05/13 14:07:37;;;;;;;4.82;1.55;;;;;;;17.23;56.68;100863.75;5053337;28;19920;-69
2023/05/13 14:10:41;;;;;;;3.50;1.40;;;;;;;17.21;56.05;100857.72;5053066;28;20063;-69
2023/05/13 14:13:44;;;;;;;2.47;1.33;;;;;;;17.25;56.21;100859.19;5053196;28;20436;-69
2023/05/13 14:16:50;;;;;;;3.60;1.60;;;;;;;17.35;56.53;100854.88;5053148;28;20043;-69
2023/05/13 14:19:54;;;;;;;5.07;1.50;;;;;;;17.42;57.28;100856.13;5053128;28;20040;-69
2023/05/13 14:22:57;;;;;;;3.70;1.80;;;;;;;17.64;57.87;100857.13;5053191;28;20052;-69
2023/05/13 14:26:00;;;;;;;5.32;1.67;;;;;;;18.17;54.14;100854.78;5052912;28;20055;-69
2023/05/13 14:29:12;;;;;;;3.30;1.58;;;;;;;18.57;54.51;100856.91;5052957;28;20047;-69
2023/05/13 14:32:15;;;;;;;5.20;1.70;;;;;;;18.19;53.47;100854.66;5052962;28;20562;-68
2023/05/13 14:35:18;;;;;;;4.10;1.80;;;;;;;17.75;52.51;100851.84;5053059;28;20121;-69
2023/05/13 14:38:22;;;;;;;4.88;1.80;;;;;;;18.12;51.67;100846.34;5052852;28;20099;-69